sensor_id;sensor_type;location;lat;lon;timestamp;pressure;altitude;pressure_sealevel;temperature;humidity
36234;BME280;43467;50.890;5.982;2023-03-23T00:01:23;99031.78;;;13.01;76.85
36234;BME280;43467;50.890;5.982;2023-03-23T00:03:52;99025.63;;;13.00;76.57
36234;BME280;43467;50.890;5.982;2023-03-23T00:06:19;99014.81;;;13.03;76.66
36234;BME280;43467;50.890;5.982;2023-03-23T00:08:50;99019.44;;;12.89;76.97
36234;BME280;43467;50.890;5.982;2023-03-23T00:11:23;99039.50;;;12.93;76.98
36234;BME280;43467;50.890;5.982;2023-03-23T00:13:50;99029.63;;;12.95;77.13
36234;BME280;43467;50.890;5.982;2023-03-23T00:16:18;99025.50;;;12.91;77.49
36234;BME280;43467;50.890;5.982;2023-03-23T00:21:09;99015.47;;;12.94;77.61
36234;BME280;43467;50.890;5.982;2023-03-23T00:23:35;99021.03;;;12.91;77.78
36234;BME280;43467;50.890;5.982;2023-03-23T00:26:00;99013.25;;;12.88;77.96
36234;BME280;43467;50.890;5.982;2023-03-23T00:28:27;99009.56;;;12.91;77.77
36234;BME280;43467;50.890;5.982;2023-03-23T00:30:57;99013.88;;;12.92;77.88
36234;BME280;43467;50.890;5.982;2023-03-23T00:33:24;99016.66;;;12.90;78.14
36234;BME280;43467;50.890;5.982;2023-03-23T00:35:51;99013.66;;;12.95;78.12
36234;BME280;43467;50.890;5.982;2023-03-23T00:38:18;99011.47;;;12.89;78.47
36234;BME280;43467;50.890;5.982;2023-03-23T00:40:45;99012.06;;;12.92;78.33
36234;BME280;43467;50.890;5.982;2023-03-23T00:43:13;99022.59;;;12.94;78.12
36234;BME280;43467;50.890;5.982;2023-03-23T00:45:38;99027.91;;;12.94;78.36
36234;BME280;43467;50.890;5.982;2023-03-23T00:48:04;99009.31;;;12.94;78.67
36234;BME280;43467;50.890;5.982;2023-03-23T00:50:30;99016.44;;;12.93;78.86
36234;BME280;43467;50.890;5.982;2023-03-23T00:52:56;99016.19;;;12.96;79.21
36234;BME280;43467;50.890;5.982;2023-03-23T00:55:47;99006.03;;;12.90;80.34
36234;BME280;43467;50.890;5.982;2023-03-23T00:58:14;98997.66;;;12.84;81.51
36234;BME280;43467;50.890;5.982;2023-03-23T01:00:41;99014.34;;;12.86;81.93
36234;BME280;43467;50.890;5.982;2023-03-23T01:03:08;99022.75;;;12.80;82.61
36234;BME280;43467;50.890;5.982;2023-03-23T01:05:38;99028.19;;;12.78;83.17
36234;BME280;43467;50.890;5.982;2023-03-23T01:08:05;99031.09;;;12.75;83.75
36234;BME280;43467;50.890;5.982;2023-03-23T01:10:31;99031.19;;;12.74;84.54
36234;BME280;43467;50.890;5.982;2023-03-23T01:13:01;99035.38;;;12.65;85.76
36234;BME280;43467;50.890;5.982;2023-03-23T01:15:28;99013.16;;;12.66;86.08
36234;BME280;43467;50.890;5.982;2023-03-23T01:17:54;99002.78;;;12.63;86.68
36234;BME280;43467;50.890;5.982;2023-03-23T01:20:21;98978.38;;;12.58;87.82
36234;BME280;43467;50.890;5.982;2023-03-23T01:22:46;98990.47;;;12.62;87.34
36234;BME280;43467;50.890;5.982;2023-03-23T01:25:13;98990.03;;;12.55;86.82
36234;BME280;43467;50.890;5.982;2023-03-23T01:27:39;98966.44;;;12.64;86.85
36234;BME280;43467;50.890;5.982;2023-03-23T01:30:06;98936.41;;;12.63;86.39
36234;BME280;43467;50.890;5.982;2023-03-23T01:32:32;98941.47;;;12.66;86.46
36234;BME280;43467;50.890;5.982;2023-03-23T01:34:58;98977.28;;;12.61;86.22
36234;BME280;43467;50.890;5.982;2023-03-23T01:37:24;98967.97;;;12.55;85.50
36234;BME280;43467;50.890;5.982;2023-03-23T01:39:57;98975.38;;;12.63;85.09
36234;BME280;43467;50.890;5.982;2023-03-23T01:42:24;98958.94;;;12.57;84.49
36234;BME280;43467;50.890;5.982;2023-03-23T01:47:16;98976.66;;;12.57;83.54
36234;BME280;43467;50.890;5.982;2023-03-23T01:49:48;98950.72;;;12.61;83.23
36234;BME280;43467;50.890;5.982;2023-03-23T01:52:22;98934.28;;;12.55;83.02
36234;BME280;43467;50.890;5.982;2023-03-23T01:54:49;98933.38;;;12.68;82.85
36234;BME280;43467;50.890;5.982;2023-03-23T01:57:17;98936.03;;;12.68;82.50
36234;BME280;43467;50.890;5.982;2023-03-23T01:59:48;98938.53;;;12.58;82.73
36234;BME280;43467;50.890;5.982;2023-03-23T02:02:15;98942.50;;;12.52;82.62
36234;BME280;43467;50.890;5.982;2023-03-23T02:04:41;98926.31;;;12.55;82.28
36234;BME280;43467;50.890;5.982;2023-03-23T02:07:08;98939.50;;;12.57;82.43
36234;BME280;43467;50.890;5.982;2023-03-23T02:09:34;98934.69;;;12.62;81.67
36234;BME280;43467;50.890;5.982;2023-03-23T02:12:00;98943.63;;;12.61;82.06
36234;BME280;43467;50.890;5.982;2023-03-23T02:14:27;98941.19;;;12.58;82.47
36234;BME280;43467;50.890;5.982;2023-03-23T02:17:04;98952.44;;;12.62;82.58
36234;BME280;43467;50.890;5.982;2023-03-23T02:22:26;98972.22;;;12.57;83.94
36234;BME280;43467;50.890;5.982;2023-03-23T02:30:57;98962.03;;;12.51;84.41
36234;BME280;43467;50.890;5.982;2023-03-23T02:36:27;98954.53;;;12.45;84.85
36234;BME280;43467;50.890;5.982;2023-03-23T02:41:31;98934.13;;;12.46;84.83
36234;BME280;43467;50.890;5.982;2023-03-23T02:43:59;98933.06;;;12.48;84.99
36234;BME280;43467;50.890;5.982;2023-03-23T02:46:28;98937.41;;;12.49;84.87
36234;BME280;43467;50.890;5.982;2023-03-23T02:48:55;98925.94;;;12.49;84.28
36234;BME280;43467;50.890;5.982;2023-03-23T02:51:23;98903.25;;;12.45;84.65
36234;BME280;43467;50.890;5.982;2023-03-23T02:53:51;98934.84;;;12.48;84.61
36234;BME280;43467;50.890;5.982;2023-03-23T02:56:19;98940.31;;;12.46;84.73
36234;BME280;43467;50.890;5.982;2023-03-23T02:58:46;98937.50;;;12.48;84.74
36234;BME280;43467;50.890;5.982;2023-03-23T03:04:00;98918.78;;;12.38;85.10
36234;BME280;43467;50.890;5.982;2023-03-23T03:06:34;98938.69;;;12.44;85.04
36234;BME280;43467;50.890;5.982;2023-03-23T03:09:06;98955.09;;;12.38;84.93
36234;BME280;43467;50.890;5.982;2023-03-23T03:11:36;98940.88;;;12.39;85.07
36234;BME280;43467;50.890;5.982;2023-03-23T03:14:10;98925.66;;;12.41;84.71
36234;BME280;43467;50.890;5.982;2023-03-23T03:17:04;98908.38;;;12.35;84.80
36234;BME280;43467;50.890;5.982;2023-03-23T03:19:36;98930.75;;;12.44;84.52
36234;BME280;43467;50.890;5.982;2023-03-23T03:22:03;98927.22;;;12.43;84.19
36234;BME280;43467;50.890;5.982;2023-03-23T03:24:30;98922.06;;;12.42;84.25
36234;BME280;43467;50.890;5.982;2023-03-23T03:26:58;98915.78;;;12.43;84.13
36234;BME280;43467;50.890;5.982;2023-03-23T03:29:27;98924.94;;;12.39;84.21
36234;BME280;43467;50.890;5.982;2023-03-23T03:31:55;98910.06;;;12.36;83.82
36234;BME280;43467;50.890;5.982;2023-03-23T03:34:22;98929.06;;;12.43;83.69
36234;BME280;43467;50.890;5.982;2023-03-23T03:36:51;98908.38;;;12.35;83.60
36234;BME280;43467;50.890;5.982;2023-03-23T03:39:17;98914.94;;;12.42;83.70
36234;BME280;43467;50.890;5.982;2023-03-23T03:41:46;98916.41;;;12.46;83.32
36234;BME280;43467;50.890;5.982;2023-03-23T03:44:12;98933.06;;;12.48;82.92
36234;BME280;43467;50.890;5.982;2023-03-23T03:46:37;98919.28;;;12.43;83.56
36234;BME280;43467;50.890;5.982;2023-03-23T03:49:05;98930.16;;;12.51;83.04
36234;BME280;43467;50.890;5.982;2023-03-23T03:51:32;98908.31;;;12.48;82.82
36234;BME280;43467;50.890;5.982;2023-03-23T03:53:57;98921.25;;;12.52;82.97
36234;BME280;43467;50.890;5.982;2023-03-23T03:56:23;98924.75;;;12.53;83.04
36234;BME280;43467;50.890;5.982;2023-03-23T03:58:50;98921.81;;;12.45;82.89
36234;BME280;43467;50.890;5.982;2023-03-23T04:01:17;98913.97;;;12.43;83.06
36234;BME280;43467;50.890;5.982;2023-03-23T04:03:43;98929.78;;;12.45;82.87
36234;BME280;43467;50.890;5.982;2023-03-23T04:06:09;98930.88;;;12.42;83.18
36234;BME280;43467;50.890;5.982;2023-03-23T04:08:35;98942.09;;;12.46;83.30
36234;BME280;43467;50.890;5.982;2023-03-23T04:11:03;98932.22;;;12.48;82.71
36234;BME280;43467;50.890;5.982;2023-03-23T04:13:29;98932.16;;;12.37;83.27
36234;BME280;43467;50.890;5.982;2023-03-23T04:15:55;98940.22;;;12.35;83.37
36234;BME280;43467;50.890;5.982;2023-03-23T04:18:20;98949.44;;;12.42;83.22
36234;BME280;43467;50.890;5.982;2023-03-23T04:20:48;98954.25;;;12.37;83.45
36234;BME280;43467;50.890;5.982;2023-03-23T04:23:18;98954.69;;;12.31;83.63
36234;BME280;43467;50.890;5.982;2023-03-23T04:25:49;98964.09;;;12.35;83.49
36234;BME280;43467;50.890;5.982;2023-03-23T04:28:16;98952.09;;;12.42;83.39
36234;BME280;43467;50.890;5.982;2023-03-23T04:30:43;98956.44;;;12.43;83.44
36234;BME280;43467;50.890;5.982;2023-03-23T04:33:11;98953.91;;;12.42;83.58
36234;BME280;43467;50.890;5.982;2023-03-23T04:35:43;98958.25;;;12.43;83.13
36234;BME280;43467;50.890;5.982;2023-03-23T04:38:11;98959.56;;;12.37;83.02
36234;BME280;43467;50.890;5.982;2023-03-23T04:40:38;98962.72;;;12.42;83.16
36234;BME280;43467;50.890;5.982;2023-03-23T04:43:04;98950.75;;;12.37;83.24
36234;BME280;43467;50.890;5.982;2023-03-23T04:45:33;98950.03;;;12.35;83.31
36234;BME280;43467;50.890;5.982;2023-03-23T04:47:59;98963.16;;;12.36;83.31
36234;BME280;43467;50.890;5.982;2023-03-23T04:50:30;98963.63;;;12.30;83.37
36234;BME280;43467;50.890;5.982;2023-03-23T04:52:58;98968.19;;;12.28;83.47
36234;BME280;43467;50.890;5.982;2023-03-23T04:55:25;98956.03;;;12.13;83.44
36234;BME280;43467;50.890;5.982;2023-03-23T04:57:51;98967.88;;;12.20;83.41
36234;BME280;43467;50.890;5.982;2023-03-23T05:00:17;98959.94;;;12.20;83.21
36234;BME280;43467;50.890;5.982;2023-03-23T05:02:45;98964.63;;;12.17;82.77
36234;BME280;43467;50.890;5.982;2023-03-23T05:05:17;98965.84;;;12.24;82.49
36234;BME280;43467;50.890;5.982;2023-03-23T05:07:43;98973.72;;;12.25;82.11
36234;BME280;43467;50.890;5.982;2023-03-23T05:10:10;98987.84;;;12.26;82.22
36234;BME280;43467;50.890;5.982;2023-03-23T05:12:36;98977.09;;;12.27;81.89
36234;BME280;43467;50.890;5.982;2023-03-23T05:15:02;98965.53;;;12.28;81.28
36234;BME280;43467;50.890;5.982;2023-03-23T05:17:28;98970.59;;;12.31;80.78
36234;BME280;43467;50.890;5.982;2023-03-23T05:19:55;98970.72;;;12.30;80.77
36234;BME280;43467;50.890;5.982;2023-03-23T05:22:22;98966.38;;;12.29;80.86
36234;BME280;43467;50.890;5.982;2023-03-23T05:24:48;98970.31;;;12.23;80.60
36234;BME280;43467;50.890;5.982;2023-03-23T05:27:16;98969.13;;;12.27;80.39
36234;BME280;43467;50.890;5.982;2023-03-23T05:29:42;98974.34;;;12.29;80.22
36234;BME280;43467;50.890;5.982;2023-03-23T05:32:08;98980.16;;;12.34;79.78
36234;BME280;43467;50.890;5.982;2023-03-23T05:34:34;98965.97;;;12.22;79.56
36234;BME280;43467;50.890;5.982;2023-03-23T05:37:01;98980.91;;;12.23;79.93
36234;BME280;43467;50.890;5.982;2023-03-23T05:39:28;98990.16;;;12.30;79.51
36234;BME280;43467;50.890;5.982;2023-03-23T05:41:54;98987.28;;;12.33;79.38
36234;BME280;43467;50.890;5.982;2023-03-23T05:44:20;98995.34;;;12.32;78.75
36234;BME280;43467;50.890;5.982;2023-03-23T05:46:46;98995.03;;;12.24;79.11
36234;BME280;43467;50.890;5.982;2023-03-23T05:49:12;98987.22;;;12.22;79.09
36234;BME280;43467;50.890;5.982;2023-03-23T05:51:39;99003.44;;;12.30;78.77
36234;BME280;43467;50.890;5.982;2023-03-23T05:54:04;98997.38;;;12.28;78.64
36234;BME280;43467;50.890;5.982;2023-03-23T05:56:30;98988.78;;;12.25;78.71
36234;BME280;43467;50.890;5.982;2023-03-23T05:58:56;99001.63;;;12.31;78.75
36234;BME280;43467;50.890;5.982;2023-03-23T06:01:22;98989.63;;;12.25;78.43
36234;BME280;43467;50.890;5.982;2023-03-23T06:03:48;99002.25;;;12.34;78.43
36234;BME280;43467;50.890;5.982;2023-03-23T06:06:16;99004.59;;;12.26;78.55
36234;BME280;43467;50.890;5.982;2023-03-23T06:08:41;98982.41;;;12.27;78.74
36234;BME280;43467;50.890;5.982;2023-03-23T06:11:07;98997.13;;;12.31;78.33
36234;BME280;43467;50.890;5.982;2023-03-23T06:13:33;98989.69;;;12.36;78.25
36234;BME280;43467;50.890;5.982;2023-03-23T06:15:59;98997.66;;;12.36;77.92
36234;BME280;43467;50.890;5.982;2023-03-23T06:18:24;98996.53;;;12.28;77.72
36234;BME280;43467;50.890;5.982;2023-03-23T06:20:50;98993.88;;;12.28;78.17
36234;BME280;43467;50.890;5.982;2023-03-23T06:23:17;98998.84;;;12.32;78.17
36234;BME280;43467;50.890;5.982;2023-03-23T06:25:43;98993.09;;;12.38;77.95
36234;BME280;43467;50.890;5.982;2023-03-23T06:28:09;99006.56;;;12.35;77.69
36234;BME280;43467;50.890;5.982;2023-03-23T06:30:35;99007.75;;;12.31;77.73
36234;BME280;43467;50.890;5.982;2023-03-23T06:33:01;99016.47;;;12.33;77.75
36234;BME280;43467;50.890;5.982;2023-03-23T06:35:31;99021.69;;;12.35;77.79
36234;BME280;43467;50.890;5.982;2023-03-23T06:37:58;99021.56;;;12.36;77.63
36234;BME280;43467;50.890;5.982;2023-03-23T06:40:27;99024.22;;;12.36;77.58
36234;BME280;43467;50.890;5.982;2023-03-23T06:42:52;99032.78;;;12.40;77.39
36234;BME280;43467;50.890;5.982;2023-03-23T06:45:18;99023.78;;;12.42;77.17
36234;BME280;43467;50.890;5.982;2023-03-23T06:47:45;99042.34;;;12.42;77.16
36234;BME280;43467;50.890;5.982;2023-03-23T06:50:14;99039.81;;;12.41;76.56
36234;BME280;43467;50.890;5.982;2023-03-23T06:52:40;99032.06;;;12.38;76.24
36234;BME280;43467;50.890;5.982;2023-03-23T06:55:06;99048.09;;;12.36;76.37
36234;BME280;43467;50.890;5.982;2023-03-23T06:57:32;99041.50;;;12.42;76.57
36234;BME280;43467;50.890;5.982;2023-03-23T06:59:57;99050.66;;;12.38;76.29
36234;BME280;43467;50.890;5.982;2023-03-23T07:02:23;99047.53;;;12.44;76.20
36234;BME280;43467;50.890;5.982;2023-03-23T07:04:48;99041.06;;;12.48;75.72
36234;BME280;43467;50.890;5.982;2023-03-23T07:07:14;99033.50;;;12.54;75.63
36234;BME280;43467;50.890;5.982;2023-03-23T07:09:43;99034.88;;;12.47;75.53
36234;BME280;43467;50.890;5.982;2023-03-23T07:12:09;99022.38;;;12.49;75.00
36234;BME280;43467;50.890;5.982;2023-03-23T07:14:35;99032.00;;;12.63;74.73
36234;BME280;43467;50.890;5.982;2023-03-23T07:17:00;99036.66;;;12.59;74.60
36234;BME280;43467;50.890;5.982;2023-03-23T07:19:27;99038.59;;;12.57;74.88
36234;BME280;43467;50.890;5.982;2023-03-23T07:21:53;99039.31;;;12.59;74.60
36234;BME280;43467;50.890;5.982;2023-03-23T07:24:18;99030.16;;;12.64;74.58
36234;BME280;43467;50.890;5.982;2023-03-23T07:26:44;99032.38;;;12.70;74.34
36234;BME280;43467;50.890;5.982;2023-03-23T07:29:09;99033.09;;;12.72;74.06
36234;BME280;43467;50.890;5.982;2023-03-23T07:31:35;99022.59;;;12.70;74.25
36234;BME280;43467;50.890;5.982;2023-03-23T07:34:01;99030.81;;;12.67;73.97
36234;BME280;43467;50.890;5.982;2023-03-23T07:36:28;99032.28;;;12.71;74.07
36234;BME280;43467;50.890;5.982;2023-03-23T07:38:53;99034.66;;;12.63;73.42
36234;BME280;43467;50.890;5.982;2023-03-23T07:41:20;99032.81;;;12.64;73.85
36234;BME280;43467;50.890;5.982;2023-03-23T07:43:46;99031.63;;;12.68;73.60
36234;BME280;43467;50.890;5.982;2023-03-23T07:46:12;99035.38;;;12.65;73.68
36234;BME280;43467;50.890;5.982;2023-03-23T07:48:38;99044.72;;;12.71;73.65
36234;BME280;43467;50.890;5.982;2023-03-23T07:51:04;99041.59;;;12.77;73.37
36234;BME280;43467;50.890;5.982;2023-03-23T07:53:30;99056.34;;;12.81;73.07
36234;BME280;43467;50.890;5.982;2023-03-23T07:55:55;99051.44;;;12.87;73.46
36234;BME280;43467;50.890;5.982;2023-03-23T07:58:21;99051.44;;;12.87;72.68
36234;BME280;43467;50.890;5.982;2023-03-23T08:00:46;99041.63;;;12.88;72.24
36234;BME280;43467;50.890;5.982;2023-03-23T08:03:14;99031.53;;;12.69;72.74
36234;BME280;43467;50.890;5.982;2023-03-23T08:05:41;99057.81;;;12.85;72.55
36234;BME280;43467;50.890;5.982;2023-03-23T08:08:08;99062.69;;;12.91;72.65
36234;BME280;43467;50.890;5.982;2023-03-23T08:10:33;99062.22;;;12.97;72.83
36234;BME280;43467;50.890;5.982;2023-03-23T08:12:59;99060.81;;;13.04;72.56
36234;BME280;43467;50.890;5.982;2023-03-23T08:15:25;99048.59;;;13.01;72.16
36234;BME280;43467;50.890;5.982;2023-03-23T08:17:51;99060.31;;;12.99;72.36
36234;BME280;43467;50.890;5.982;2023-03-23T08:20:17;99068.66;;;13.05;72.81
36234;BME280;43467;50.890;5.982;2023-03-23T08:22:48;99066.00;;;13.05;72.62
36234;BME280;43467;50.890;5.982;2023-03-23T08:25:14;99071.22;;;13.07;72.90
36234;BME280;43467;50.890;5.982;2023-03-23T08:27:39;99074.94;;;13.04;73.10
36234;BME280;43467;50.890;5.982;2023-03-23T08:30:09;99079.53;;;13.02;73.88
36234;BME280;43467;50.890;5.982;2023-03-23T08:32:35;99075.78;;;13.05;74.18
36234;BME280;43467;50.890;5.982;2023-03-23T08:35:01;99088.00;;;13.08;74.48
36234;BME280;43467;50.890;5.982;2023-03-23T08:37:26;99092.88;;;13.14;75.26
36234;BME280;43467;50.890;5.982;2023-03-23T08:39:53;99097.97;;;13.17;74.95
36234;BME280;43467;50.890;5.982;2023-03-23T08:42:19;99079.50;;;13.15;75.22
36234;BME280;43467;50.890;5.982;2023-03-23T08:44:45;99082.50;;;13.11;75.50
36234;BME280;43467;50.890;5.982;2023-03-23T08:47:10;99081.84;;;13.07;74.82
36234;BME280;43467;50.890;5.982;2023-03-23T08:49:36;99066.56;;;13.11;74.36
36234;BME280;43467;50.890;5.982;2023-03-23T08:52:02;99071.44;;;13.04;74.46
36234;BME280;43467;50.890;5.982;2023-03-23T08:54:29;99077.59;;;13.04;74.65
36234;BME280;43467;50.890;5.982;2023-03-23T08:56:59;99076.25;;;12.99;74.35
36234;BME280;43467;50.890;5.982;2023-03-23T08:59:26;99074.53;;;12.98;74.20
36234;BME280;43467;50.890;5.982;2023-03-23T09:01:52;99085.06;;;12.99;73.96
36234;BME280;43467;50.890;5.982;2023-03-23T09:04:18;99083.13;;;13.01;73.75
36234;BME280;43467;50.890;5.982;2023-03-23T09:06:43;99100.78;;;13.02;73.64
36234;BME280;43467;50.890;5.982;2023-03-23T09:09:11;99084.66;;;12.93;73.97
36234;BME280;43467;50.890;5.982;2023-03-23T09:11:37;99112.94;;;12.94;73.70
36234;BME280;43467;50.890;5.982;2023-03-23T09:14:05;99116.97;;;12.99;73.60
36234;BME280;43467;50.890;5.982;2023-03-23T09:16:31;99106.03;;;12.91;74.01
36234;BME280;43467;50.890;5.982;2023-03-23T09:18:58;99108.00;;;13.00;73.74
36234;BME280;43467;50.890;5.982;2023-03-23T09:21:24;99105.47;;;13.12;73.35
36234;BME280;43467;50.890;5.982;2023-03-23T09:23:50;99111.19;;;13.05;73.38
36234;BME280;43467;50.890;5.982;2023-03-23T09:26:16;99108.28;;;13.09;73.22
36234;BME280;43467;50.890;5.982;2023-03-23T09:28:42;99117.91;;;13.11;73.61
36234;BME280;43467;50.890;5.982;2023-03-23T09:31:09;99106.00;;;13.04;73.89
36234;BME280;43467;50.890;5.982;2023-03-23T09:33:36;99095.22;;;13.05;73.85
36234;BME280;43467;50.890;5.982;2023-03-23T09:36:02;99101.63;;;13.03;73.81
36234;BME280;43467;50.890;5.982;2023-03-23T09:38:28;99119.47;;;13.01;74.59
36234;BME280;43467;50.890;5.982;2023-03-23T09:53:54;99127.78;;;12.96;79.04
36234;BME280;43467;50.890;5.982;2023-03-23T09:56:22;99115.34;;;12.97;79.03
36234;BME280;43467;50.890;5.982;2023-03-23T09:58:55;99118.00;;;12.97;79.00
36234;BME280;43467;50.890;5.982;2023-03-23T10:01:31;99124.84;;;12.88;79.28
36234;BME280;43467;50.890;5.982;2023-03-23T10:06:53;99123.66;;;12.92;79.83
36234;BME280;43467;50.890;5.982;2023-03-23T10:09:21;99112.06;;;12.93;79.91
36234;BME280;43467;50.890;5.982;2023-03-23T10:14:28;99125.94;;;13.10;79.89
36234;BME280;43467;50.890;5.982;2023-03-23T10:17:22;99112.03;;;13.06;80.15
36234;BME280;43467;50.890;5.982;2023-03-23T10:20:21;99129.25;;;13.00;81.13
36234;BME280;43467;50.890;5.982;2023-03-23T10:25:23;99133.06;;;13.09;80.74
36234;BME280;43467;50.890;5.982;2023-03-23T10:28:13;99141.06;;;12.96;81.80
36234;BME280;43467;50.890;5.982;2023-03-23T10:30:45;99134.19;;;12.94;80.74
36234;BME280;43467;50.890;5.982;2023-03-23T10:33:22;99138.66;;;12.93;81.83
36234;BME280;43467;50.890;5.982;2023-03-23T10:36:08;99149.97;;;12.72;84.89
36234;BME280;43467;50.890;5.982;2023-03-23T10:41:12;99165.66;;;12.87;87.47
36234;BME280;43467;50.890;5.982;2023-03-23T10:43:38;99171.97;;;12.74;86.89
36234;BME280;43467;50.890;5.982;2023-03-23T10:48:51;99176.50;;;12.72;86.82
36234;BME280;43467;50.890;5.982;2023-03-23T10:51:20;99178.22;;;12.73;86.37
36234;BME280;43467;50.890;5.982;2023-03-23T10:53:56;99172.84;;;12.62;87.34
36234;BME280;43467;50.890;5.982;2023-03-23T10:56:37;99187.28;;;12.45;88.79
36234;BME280;43467;50.890;5.982;2023-03-23T11:01:44;99183.97;;;12.03;92.21
36234;BME280;43467;50.890;5.982;2023-03-23T11:04:13;99186.41;;;12.06;93.13
36234;BME280;43467;50.890;5.982;2023-03-23T11:06:44;99184.22;;;12.13;94.25
36234;BME280;43467;50.890;5.982;2023-03-23T11:11:48;99170.31;;;12.09;95.00
36234;BME280;43467;50.890;5.982;2023-03-23T11:14:31;99176.13;;;12.27;95.33
36234;BME280;43467;50.890;5.982;2023-03-23T11:17:04;99175.19;;;12.28;94.68
36234;BME280;43467;50.890;5.982;2023-03-23T11:19:35;99175.81;;;12.44;94.76
36234;BME280;43467;50.890;5.982;2023-03-23T11:24:33;99179.84;;;12.50;94.60
36234;BME280;43467;50.890;5.982;2023-03-23T11:26:59;99152.22;;;12.52;93.97
36234;BME280;43467;50.890;5.982;2023-03-23T11:29:26;99143.63;;;12.62;94.49
36234;BME280;43467;50.890;5.982;2023-03-23T11:34:39;99137.13;;;12.66;93.50
36234;BME280;43467;50.890;5.982;2023-03-23T11:40:00;99160.56;;;12.84;94.25
36234;BME280;43467;50.890;5.982;2023-03-23T11:45:14;99147.16;;;12.86;89.62
36234;BME280;43467;50.890;5.982;2023-03-23T11:47:55;99144.56;;;12.97;89.49
36234;BME280;43467;50.890;5.982;2023-03-23T11:53:55;99155.94;;;12.75;92.67
36234;BME280;43467;50.890;5.982;2023-03-23T11:56:27;99162.91;;;12.76;92.68
36234;BME280;43467;50.890;5.982;2023-03-23T11:58:56;99156.63;;;12.90;91.79
36234;BME280;43467;50.890;5.982;2023-03-23T12:02:00;99152.25;;;12.89;92.25
36234;BME280;43467;50.890;5.982;2023-03-23T12:18:44;99131.72;;;13.51;84.81
36234;BME280;43467;50.890;5.982;2023-03-23T12:26:17;99133.81;;;13.70;82.24
36234;BME280;43467;50.890;5.982;2023-03-23T12:36:37;99146.63;;;14.00;81.69
36234;BME280;43467;50.890;5.982;2023-03-23T12:44:34;99173.38;;;14.09;79.69
36234;BME280;43467;50.890;5.982;2023-03-23T12:50:03;99179.81;;;13.83;82.74
36234;BME280;43467;50.890;5.982;2023-03-23T12:53:10;99181.66;;;13.59;86.46
36234;BME280;43467;50.890;5.982;2023-03-23T12:58:38;99169.53;;;13.43;89.62
36234;BME280;43467;50.890;5.982;2023-03-23T13:01:19;99163.66;;;13.27;90.44
36234;BME280;43467;50.890;5.982;2023-03-23T13:04:09;99174.50;;;13.24;90.66
36234;BME280;43467;50.890;5.982;2023-03-23T13:11:41;99162.94;;;13.13;92.11
36234;BME280;43467;50.890;5.982;2023-03-23T13:17:05;99166.25;;;13.03;91.52
36234;BME280;43467;50.890;5.982;2023-03-23T13:20:05;99165.84;;;12.97;92.59
36234;BME280;43467;50.890;5.982;2023-03-23T13:22:50;99166.44;;;13.13;91.89
36234;BME280;43467;50.890;5.982;2023-03-23T13:28:04;99164.94;;;13.09;91.72
36234;BME280;43467;50.890;5.982;2023-03-23T13:30:30;99170.19;;;13.11;91.85
36234;BME280;43467;50.890;5.982;2023-03-23T13:33:06;99175.41;;;13.12;92.18
36234;BME280;43467;50.890;5.982;2023-03-23T13:35:38;99165.59;;;13.13;91.90
36234;BME280;43467;50.890;5.982;2023-03-23T13:38:20;99175.03;;;13.17;92.98
36234;BME280;43467;50.890;5.982;2023-03-23T13:40:47;99168.53;;;13.21;92.24
36234;BME280;43467;50.890;5.982;2023-03-23T13:43:12;99169.59;;;13.31;90.84
36234;BME280;43467;50.890;5.982;2023-03-23T13:45:47;99175.50;;;13.34;88.91
36234;BME280;43467;50.890;5.982;2023-03-23T13:50:54;99177.22;;;13.35;88.62
36234;BME280;43467;50.890;5.982;2023-03-23T13:53:29;99183.25;;;13.37;88.26
36234;BME280;43467;50.890;5.982;2023-03-23T13:56:19;99190.56;;;13.46;87.36
36234;BME280;43467;50.890;5.982;2023-03-23T13:58:51;99173.19;;;13.54;87.13
36234;BME280;43467;50.890;5.982;2023-03-23T14:01:36;99180.16;;;13.43;87.19
36234;BME280;43467;50.890;5.982;2023-03-23T14:04:06;99177.56;;;13.31;87.90
36234;BME280;43467;50.890;5.982;2023-03-23T14:06:36;99162.97;;;13.36;88.80
36234;BME280;43467;50.890;5.982;2023-03-23T14:09:29;99165.13;;;13.31;87.91
36234;BME280;43467;50.890;5.982;2023-03-23T14:11:59;99177.94;;;13.37;88.75
36234;BME280;43467;50.890;5.982;2023-03-23T14:14:33;99175.19;;;13.39;89.02
36234;BME280;43467;50.890;5.982;2023-03-23T14:17:24;99173.13;;;13.42;90.30
36234;BME280;43467;50.890;5.982;2023-03-23T14:19:52;99179.25;;;13.56;89.60
36234;BME280;43467;50.890;5.982;2023-03-23T14:22:40;99170.53;;;13.77;90.24
36234;BME280;43467;50.890;5.982;2023-03-23T14:25:14;99157.75;;;13.93;88.84
36234;BME280;43467;50.890;5.982;2023-03-23T14:27:40;99166.34;;;13.97;87.72
36234;BME280;43467;50.890;5.982;2023-03-23T14:30:15;99153.03;;;14.08;88.04
36234;BME280;43467;50.890;5.982;2023-03-23T14:32:41;99156.81;;;14.17;86.97
36234;BME280;43467;50.890;5.982;2023-03-23T14:35:13;99149.22;;;14.34;86.39
36234;BME280;43467;50.890;5.982;2023-03-23T14:37:40;99150.81;;;14.48;85.14
36234;BME280;43467;50.890;5.982;2023-03-23T14:40:08;99136.66;;;14.36;82.32
36234;BME280;43467;50.890;5.982;2023-03-23T14:42:37;99107.84;;;14.53;81.68
36234;BME280;43467;50.890;5.982;2023-03-23T14:45:04;99095.72;;;14.71;82.78
36234;BME280;43467;50.890;5.982;2023-03-23T14:47:34;99097.00;;;14.87;81.54
36234;BME280;43467;50.890;5.982;2023-03-23T14:50:03;99089.97;;;14.98;78.87
36234;BME280;43467;50.890;5.982;2023-03-23T14:52:35;99091.16;;;15.05;76.55
36234;BME280;43467;50.890;5.982;2023-03-23T14:55:21;99086.56;;;15.07;74.83
36234;BME280;43467;50.890;5.982;2023-03-23T14:57:48;99076.81;;;15.17;75.29
36234;BME280;43467;50.890;5.982;2023-03-23T15:00:17;99080.03;;;15.31;71.22
36234;BME280;43467;50.890;5.982;2023-03-23T15:02:45;99071.19;;;15.31;69.96
36234;BME280;43467;50.890;5.982;2023-03-23T15:05:30;99063.25;;;15.41;71.03
36234;BME280;43467;50.890;5.982;2023-03-23T15:08:02;99076.69;;;15.50;70.31
36234;BME280;43467;50.890;5.982;2023-03-23T15:10:29;99066.50;;;15.55;69.94